Time;durP1;ratioP1;P1;durP2;ratioP2;P2;SDS_P1;SDS_P2;PMS_P1;PMS_P2;Temp;Humidity;BMP_temperature;BMP_pressure;BME280_temperature;BME280_humidity;BME280_pressure;Samples;Min_cycle;Max_cycle;Signal;HPM_P1;HPM_P2
2023/12/21 02:44:54;;;;;;;5.00;2.10;;;;;;;4.11;98.13;97649.36;107160;1301;545957;-50
2023/12/21 02:47:19;;;;;;;3.30;1.90;;;;;;;4.07;98.07;97642.81;107619;1309;23208;-51
2023/12/21 02:49:44;;;;;;;3.40;2.00;;;;;;;4.08;98.08;97638.94;107622;1309;22486;-50
2023/12/21 02:52:10;;;;;;;3.80;2.00;;;;;;;4.08;98.04;97631.67;107600;1309;22242;-45
2023/12/21 02:54:35;;;;;;;2.60;1.80;;;;;;;4.09;98.13;97621.52;107643;1309;22445;-51
2023/12/21 02:57:00;;;;;;;5.50;2.40;;;;;;;4.09;98.15;97613.95;107429;1309;22261;-48
2023/12/21 02:59:26;;;;;;;4.10;2.10;;;;;;;4.10;98.25;97610.73;107710;1291;189460;-51
2023/12/21 03:01:51;;;;;;;5.50;2.10;;;;;;;4.10;98.30;97603.98;107853;1307;22210;-46
2023/12/21 03:04:17;;;;;;;8.10;2.40;;;;;;;4.10;98.33;97605.04;107869;1307;22527;-53
2023/12/21 03:06:43;;;;;;;3.10;2.00;;;;;;;4.05;98.86;97596.66;107865;1307;22487;-51
2023/12/21 03:09:09;;;;;;;3.10;2.10;;;;;;;4.00;99.55;97590.13;107858;1307;22265;-50
2023/12/21 03:11:34;;;;;;;5.80;2.00;;;;;;;3.95;99.89;97584.36;107852;1307;22234;-51
2023/12/21 03:14:00;;;;;;;5.10;1.80;;;;;;;3.96;99.97;97576.34;107864;1301;22426;-49
2023/12/21 03:16:25;;;;;;;3.50;1.90;;;;;;;3.97;100.00;97568.99;107847;1307;22250;-47
2023/12/21 03:18:50;;;;;;;6.80;1.80;;;;;;;3.97;100.00;97562.20;107857;1307;22178;-49
2023/12/21 03:21:15;;;;;;;6.60;1.90;;;;;;;3.95;100.00;97556.94;107874;1307;22149;-48
2023/12/21 03:23:41;;;;;;;5.30;2.10;;;;;;;3.93;100.00;97549.63;107869;1285;22323;-53
2023/12/21 03:26:08;;;;;;;3.90;2.10;;;;;;;3.89;100.00;97553.15;107907;1288;22939;-46
2023/12/21 03:28:33;;;;;;;4.30;2.40;;;;;;;3.88;100.00;97551.85;107882;1307;23145;-49
2023/12/21 03:31:00;;;;;;;4.60;1.90;;;;;;;3.89;100.00;97545.02;107888;1307;22406;-48
2023/12/21 03:33:25;;;;;;;3.00;2.00;;;;;;;3.86;100.00;97541.01;107850;1307;22303;-50
2023/12/21 03:35:51;;;;;;;2.70;2.10;;;;;;;3.84;100.00;97538.48;107890;1307;23132;-48
2023/12/21 03:38:16;;;;;;;3.20;2.10;;;;;;;3.82;100.00;97530.98;107902;1307;22440;-55
2023/12/21 03:40:42;;;;;;;2.30;1.90;;;;;;;3.86;100.00;97524.54;107884;1307;22250;-50
2023/12/21 03:43:07;;;;;;;2.90;1.90;;;;;;;3.74;100.00;97515.67;107842;1307;23076;-54
2023/12/21 03:45:35;;;;;;;3.30;2.20;;;;;;;3.77;100.00;97511.88;107895;1307;22243;-49
2023/12/21 03:48:00;;;;;;;2.10;1.80;;;;;;;3.77;100.00;97505.30;107868;1307;22242;-48
2023/12/21 03:50:25;;;;;;;2.70;1.90;;;;;;;3.77;100.00;97499.73;107876;1307;22234;-46
2023/12/21 03:52:51;;;;;;;2.50;1.80;;;;;;;3.73;100.00;97494.03;107888;1307;22408;-48
2023/12/21 03:55:16;;;;;;;5.00;1.40;;;;;;;3.71;100.00;97487.42;107855;1307;22449;-51
2023/12/21 03:57:41;;;;;;;2.10;1.40;;;;;;;3.72;100.00;97481.64;107859;1307;23235;-50
2023/12/21 04:00:08;;;;;;;1.80;1.40;;;;;;;3.73;100.00;97474.99;107883;1307;22260;-49
2023/12/21 04:02:36;;;;;;;1.90;1.70;;;;;;;3.70;100.00;97468.89;107830;1307;22449;-49
2023/12/21 04:05:02;;;;;;;1.70;1.50;;;;;;;3.71;100.00;97464.54;107853;1307;22954;-53
2023/12/21 04:07:27;;;;;;;1.60;1.20;;;;;;;3.71;100.00;97463.14;107858;1307;22413;-49
2023/12/21 04:09:52;;;;;;;2.30;1.60;;;;;;;3.70;100.00;97449.02;107840;1307;23183;-48
2023/12/21 04:12:17;;;;;;;2.20;1.60;;;;;;;3.71;100.00;97442.55;107847;1307;23071;-49
2023/12/21 04:14:43;;;;;;;2.10;1.40;;;;;;;3.73;100.00;97438.79;107861;1288;22233;-49
2023/12/21 04:17:08;;;;;;;1.30;1.20;;;;;;;3.73;100.00;97430.63;107854;1307;22842;-50
2023/12/21 04:19:34;;;;;;;1.60;1.50;;;;;;;3.73;100.00;97425.44;107838;1307;22912;-49
2023/12/21 04:21:59;;;;;;;1.50;1.40;;;;;;;3.72;100.00;97415.94;107848;1307;22838;-52
2023/12/21 04:24:25;;;;;;;1.90;1.70;;;;;;;3.71;100.00;97405.96;107853;1307;22431;-52
2023/12/21 04:26:51;;;;;;;2.60;2.20;;;;;;;3.70;100.00;97402.02;107860;1307;22901;-53
2023/12/21 04:29:16;;;;;;;2.80;2.10;;;;;;;3.72;100.00;97394.10;107931;1307;22292;-45
2023/12/21 04:31:44;;;;;;;2.70;2.20;;;;;;;3.76;100.00;97385.54;107903;1307;23367;-49
2023/12/21 04:34:09;;;;;;;1.80;1.60;;;;;;;3.76;100.00;97378.63;107909;1307;22904;-50
2023/12/21 04:36:36;;;;;;;2.50;1.80;;;;;;;3.81;100.00;97372.43;107925;1307;22540;-47
2023/12/21 04:39:01;;;;;;;1.70;1.60;;;;;;;3.82;100.00;97367.88;107909;1307;23184;-51
2023/12/21 04:41:26;;;;;;;3.80;1.60;;;;;;;3.85;100.00;97361.81;107886;1307;22608;-48
2023/12/21 04:43:51;;;;;;;1.50;1.40;;;;;;;3.88;100.00;97356.95;107903;1307;23170;-50
2023/12/21 04:46:17;;;;;;;2.10;1.40;;;;;;;3.83;100.00;97349.09;107914;1307;22531;-53
2023/12/21 04:48:42;;;;;;;2.10;1.90;;;;;;;3.85;100.00;97350.52;107905;1307;22513;-52
2023/12/21 04:51:14;;;;;;;2.10;1.80;;;;;;;3.83;100.00;97342.65;107903;1307;22295;-49
2023/12/21 04:53:39;;;;;;;3.10;1.60;;;;;;;3.82;100.00;97337.69;107927;1307;22200;-47
2023/12/21 04:56:05;;;;;;;1.80;1.70;;;;;;;3.83;100.00;97340.79;107926;1307;23170;-49
2023/12/21 04:58:30;;;;;;;2.60;1.60;;;;;;;3.85;100.00;97338.55;107910;1307;22418;-50
2023/12/21 05:00:56;;;;;;;1.50;1.40;;;;;;;3.84;100.00;97334.48;107919;1307;22470;-50
2023/12/21 05:03:21;;;;;;;3.90;1.80;;;;;;;3.80;100.00;97328.12;107909;1307;22974;-48
2023/12/21 05:05:46;;;;;;;2.30;2.00;;;;;;;3.80;100.00;97325.70;107925;1307;22243;-48
2023/12/21 05:08:12;;;;;;;2.20;1.60;;;;;;;3.77;100.00;97320.48;107925;1307;22515;-51
2023/12/21 05:10:38;;;;;;;3.00;1.90;;;;;;;3.76;100.00;97314.85;107916;1307;23100;-47
2023/12/21 05:13:04;;;;;;;2.90;1.80;;;;;;;3.76;100.00;97313.11;107920;1307;22469;-52
2023/12/21 05:15:29;;;;;;;2.90;1.90;;;;;;;3.81;100.00;97303.44;107927;1307;23241;-44
2023/12/21 05:17:54;;;;;;;3.20;2.00;;;;;;;3.85;100.00;97296.61;107917;1307;22485;-46
2023/12/21 05:20:19;;;;;;;3.00;2.30;;;;;;;3.83;100.00;97292.23;107914;1307;22240;-48
2023/12/21 05:22:45;;;;;;;2.40;2.20;;;;;;;3.84;100.00;97286.12;107925;1307;23096;-51
2023/12/21 05:25:10;;;;;;;4.00;2.00;;;;;;;3.84;100.00;97283.87;107881;1307;22382;-46
2023/12/21 05:27:35;;;;;;;2.10;1.70;;;;;;;3.82;100.00;97277.91;107941;1307;23137;-48
2023/12/21 05:30:01;;;;;;;2.30;1.40;;;;;;;3.86;100.00;97271.11;107921;1307;22777;-48
2023/12/21 05:32:26;;;;;;;1.90;1.80;;;;;;;3.79;100.00;97271.71;107921;1307;22283;-47
2023/12/21 05:34:52;;;;;;;1.60;1.50;;;;;;;3.85;100.00;97276.70;107928;1307;23143;-47
2023/12/21 05:37:17;;;;;;;2.90;2.00;;;;;;;3.88;100.00;97268.56;107905;1307;23052;-47
2023/12/21 05:39:47;;;;;;;2.30;2.10;;;;;;;3.89;100.00;97260.89;107898;1307;22241;-47
2023/12/21 05:42:13;;;;;;;2.40;1.60;;;;;;;3.89;100.00;97263.27;107915;1307;22883;-49
2023/12/21 05:44:38;;;;;;;1.70;1.60;;;;;;;3.88;100.00;97259.17;107912;1307;22409;-53
2023/12/21 05:47:04;;;;;;;3.50;1.60;;;;;;;3.89;100.00;97252.56;107900;1307;22187;-46
